createdAt,value
2018-09-19T00:02:05.858Z,4.70
2018-09-19T00:04:33.871Z,5.03
2018-09-19T00:07:01.918Z,4.35
2018-09-19T00:09:29.983Z,4.25
2018-09-19T00:11:58.025Z,4.55
2018-09-19T00:14:25.983Z,4.50
2018-09-19T00:16:54.051Z,4.53
2018-09-19T00:19:22.041Z,4.35
2018-09-19T00:21:50.304Z,4.37
2018-09-19T00:24:18.322Z,4.20
2018-09-19T00:26:46.359Z,4.75
2018-09-19T00:29:14.367Z,4.37
2018-09-19T00:31:42.772Z,4.22
2018-09-19T00:34:10.774Z,4.33
2018-09-19T00:36:38.769Z,5.05
2018-09-19T00:39:07.657Z,4.83
2018-09-19T00:41:35.654Z,4.55
2018-09-19T00:44:03.678Z,4.35
2018-09-19T00:46:32.141Z,4.47
2018-09-19T00:49:01.045Z,5.12
2018-09-19T00:51:29.115Z,4.40
2018-09-19T00:53:57.135Z,5.22
2018-09-19T00:56:25.344Z,4.30
2018-09-19T00:58:53.555Z,4.35
2018-09-19T01:01:21.808Z,4.65
2018-09-19T01:03:50.032Z,5.03
2018-09-19T01:06:18.100Z,4.78
2018-09-19T01:08:46.159Z,4.15
2018-09-19T01:11:14.183Z,4.65
2018-09-19T01:13:42.185Z,4.47
2018-09-19T01:16:10.211Z,4.35
2018-09-19T01:18:38.263Z,5.00
2018-09-19T01:21:06.270Z,3.90
2018-09-19T01:23:34.859Z,4.62
2018-09-19T01:26:02.977Z,4.12
2018-09-19T01:28:31.023Z,4.67
2018-09-19T01:30:59.070Z,4.20
2018-09-19T01:33:27.098Z,4.40
2018-09-19T01:35:55.106Z,4.53
2018-09-19T01:38:23.287Z,4.03
2018-09-19T01:40:51.320Z,4.60
2018-09-19T01:43:19.646Z,4.40
2018-09-19T01:45:48.036Z,4.28
2018-09-19T01:48:16.079Z,3.77
2018-09-19T01:50:44.266Z,4.03
2018-09-19T01:53:12.285Z,3.85
2018-09-19T01:55:40.271Z,3.80
2018-09-19T01:58:08.313Z,4.33
2018-09-19T02:00:36.340Z,3.83
2018-09-19T02:03:04.673Z,3.92
2018-09-19T02:05:32.683Z,4.50
2018-09-19T02:08:00.710Z,3.98
2018-09-19T02:10:28.873Z,3.83
2018-09-19T02:12:57.104Z,4.08
2018-09-19T02:15:25.145Z,4.35
2018-09-19T02:17:53.245Z,4.92
2018-09-19T02:20:21.327Z,4.37
2018-09-19T02:22:49.378Z,4.58
2018-09-19T02:25:17.644Z,3.98
2018-09-19T02:27:45.698Z,5.28
2018-09-19T02:30:14.294Z,4.30
2018-09-19T02:32:42.250Z,4.80
2018-09-19T02:35:10.361Z,4.15
2018-09-19T02:37:38.435Z,4.17
2018-09-19T02:40:06.438Z,4.53
2018-09-19T02:42:34.726Z,4.80
2018-09-19T02:45:03.314Z,4.80
2018-09-19T02:47:31.467Z,5.10
2018-09-19T02:49:59.538Z,4.63
2018-09-19T02:52:27.773Z,4.77
2018-09-19T02:54:55.841Z,4.90
2018-09-19T02:57:23.851Z,4.20
2018-09-19T02:59:52.241Z,4.13
2018-09-19T03:02:20.319Z,4.83
2018-09-19T03:04:48.257Z,4.63
2018-09-19T03:07:16.326Z,4.43
2018-09-19T03:09:44.342Z,5.00
2018-09-19T03:12:12.720Z,4.60
2018-09-19T03:14:40.781Z,4.80
2018-09-19T03:17:08.879Z,4.60
2018-09-19T03:19:36.827Z,4.25
2018-09-19T03:22:04.878Z,4.78
2018-09-19T03:24:32.879Z,4.92
2018-09-19T03:27:01.495Z,5.37
2018-09-19T03:29:29.830Z,4.70
2018-09-19T03:31:57.835Z,5.12
2018-09-19T03:34:25.976Z,4.83
2018-09-19T03:36:54.186Z,5.22
2018-09-19T03:39:22.201Z,4.90
2018-09-19T03:41:50.328Z,4.47
2018-09-19T03:44:18.654Z,5.40
2018-09-19T03:46:46.659Z,4.53
2018-09-19T03:49:14.702Z,4.72
2018-09-19T03:51:42.741Z,4.78
2018-09-19T03:54:10.890Z,5.08
2018-09-19T03:56:38.959Z,4.80
2018-09-19T03:59:07.438Z,5.40
2018-09-19T04:01:35.425Z,5.20
2018-09-19T04:04:03.487Z,5.22
2018-09-19T04:06:32.240Z,4.35
2018-09-19T04:09:00.353Z,4.87
2018-09-19T04:11:28.370Z,5.28
2018-09-19T04:13:56.424Z,5.12
2018-09-19T04:16:24.468Z,4.97
2018-09-19T04:18:52.569Z,4.55
2018-09-19T04:21:20.619Z,4.95
2018-09-19T04:23:48.619Z,5.10
2018-09-19T04:26:16.628Z,5.08
2018-09-19T04:28:45.123Z,5.72
2018-09-19T04:31:13.126Z,5.53
2018-09-19T04:33:41.130Z,5.55
2018-09-19T04:36:09.244Z,5.08
2018-09-19T04:38:37.366Z,5.15
2018-09-19T04:41:05.370Z,5.37
2018-09-19T04:43:33.549Z,5.37
2018-09-19T04:46:01.610Z,5.65
2018-09-19T04:48:29.696Z,5.00
2018-09-19T04:50:57.955Z,5.53
2018-09-19T04:53:25.975Z,4.75
2018-09-19T04:55:53.989Z,5.92
2018-09-19T04:58:22.177Z,4.95
2018-09-19T05:00:50.263Z,4.92
2018-09-19T05:03:18.286Z,5.47
2018-09-19T05:05:46.424Z,7.10
2018-09-19T05:08:14.442Z,5.22
2018-09-19T05:10:42.449Z,5.35
2018-09-19T05:13:10.824Z,5.25
2018-09-19T05:15:38.834Z,5.85
2018-09-19T05:18:06.837Z,5.30
2018-09-19T05:20:34.949Z,6.35
2018-09-19T05:23:03.081Z,5.53
2018-09-19T05:25:31.083Z,7.00
2018-09-19T05:27:59.118Z,6.50
2018-09-19T05:30:29.642Z,5.83
2018-09-19T05:32:57.707Z,5.90
2018-09-19T05:35:25.927Z,6.20
2018-09-19T05:37:53.905Z,5.97
2018-09-19T05:40:22.047Z,7.25
2018-09-19T05:42:50.127Z,6.60
2018-09-19T05:45:18.339Z,6.08
2018-09-19T05:47:46.560Z,6.22
2018-09-19T05:50:14.636Z,6.45
2018-09-19T05:52:42.736Z,6.05
2018-09-19T05:55:10.888Z,5.78
2018-09-19T05:57:38.886Z,6.83
2018-09-19T06:00:07.011Z,6.37
2018-09-19T06:02:35.307Z,6.15
2018-09-19T06:05:03.351Z,5.75
2018-09-19T06:07:31.348Z,5.45
2018-09-19T06:09:59.375Z,5.50
2018-09-19T06:12:27.893Z,5.55
2018-09-19T06:14:56.084Z,5.42
2018-09-19T06:17:24.228Z,5.70
2018-09-19T06:19:52.252Z,6.55
2018-09-19T06:22:20.253Z,5.97
2018-09-19T06:24:48.331Z,6.72
2018-09-19T06:27:16.329Z,5.12
2018-09-19T06:29:44.402Z,5.70
2018-09-19T06:32:13.182Z,6.33
2018-09-19T06:34:41.186Z,5.00
2018-09-19T06:37:09.262Z,5.60
2018-09-19T06:39:37.529Z,5.67
2018-09-19T06:42:05.649Z,5.58
2018-09-19T06:44:34.815Z,5.53
2018-09-19T06:47:03.328Z,5.40
2018-09-19T06:49:31.300Z,5.95
2018-09-19T06:51:59.317Z,5.92
2018-09-19T06:54:27.373Z,6.17
2018-09-19T06:56:55.548Z,6.50
2018-09-19T06:59:23.665Z,5.58
2018-09-19T07:01:51.733Z,5.12
2018-09-19T07:04:19.739Z,6.10
2018-09-19T07:06:47.761Z,6.28
2018-09-19T07:09:15.798Z,6.55
2018-09-19T07:11:44.016Z,5.35
2018-09-19T07:14:12.022Z,4.90
2018-09-19T07:16:40.311Z,5.55
2018-09-19T07:19:08.327Z,4.85
2018-09-19T07:21:36.434Z,5.42
2018-09-19T07:24:05.182Z,5.20
2018-09-19T07:26:33.303Z,5.10
2018-09-19T07:29:01.480Z,4.50
2018-09-19T07:31:29.506Z,4.72
2018-09-19T07:33:57.839Z,4.35
2018-09-19T07:36:26.894Z,4.40
2018-09-19T07:38:54.995Z,3.98
2018-09-19T07:41:23.066Z,4.90
2018-09-19T07:43:51.361Z,4.50
2018-09-19T07:46:19.432Z,4.10
2018-09-19T07:48:47.906Z,4.45
2018-09-19T07:51:15.996Z,4.45
2018-09-19T07:53:44.047Z,5.10
2018-09-19T07:56:12.086Z,4.95
2018-09-19T07:58:40.167Z,4.60
2018-09-19T08:01:08.328Z,4.45
2018-09-19T08:03:36.309Z,4.50
2018-09-19T08:06:04.598Z,4.90
2018-09-19T08:08:32.624Z,4.80
2018-09-19T08:11:00.648Z,4.75
2018-09-19T08:13:28.674Z,4.70
2018-09-19T08:15:56.673Z,4.17
2018-09-19T08:18:24.730Z,4.47
2018-09-19T08:20:53.285Z,4.60
2018-09-19T08:23:21.290Z,4.50
2018-09-19T08:25:49.322Z,3.47
2018-09-19T08:28:17.445Z,4.57
2018-09-19T08:30:45.488Z,4.43
2018-09-19T08:33:13.791Z,5.00
2018-09-19T08:35:42.276Z,4.73
2018-09-19T08:38:10.348Z,3.50
2018-09-19T08:40:38.382Z,3.83
2018-09-19T08:43:06.486Z,4.10
2018-09-19T08:45:34.518Z,3.80
2018-09-19T08:48:02.836Z,3.70
2018-09-19T08:50:31.130Z,4.58
2018-09-19T08:52:59.182Z,3.42
2018-09-19T08:55:27.194Z,3.80
2018-09-19T08:57:55.535Z,3.40
2018-09-19T09:00:23.554Z,3.62
2018-09-19T09:02:51.562Z,4.20
2018-09-19T09:05:19.689Z,3.70
2018-09-19T09:07:47.828Z,3.62
2018-09-19T09:10:15.847Z,3.17
2018-09-19T09:12:43.955Z,3.25
2018-09-19T09:15:11.988Z,3.22
2018-09-19T09:17:39.994Z,3.83
2018-09-19T09:20:08.213Z,3.67
2018-09-19T09:22:36.450Z,3.52
2018-09-19T09:25:04.550Z,4.60
2018-09-19T09:27:33.043Z,3.62
2018-09-19T09:30:01.396Z,3.70
2018-09-19T09:32:30.306Z,3.33
2018-09-19T09:34:58.346Z,3.27
2018-09-19T09:37:26.593Z,3.33
2018-09-19T09:39:54.575Z,3.60
2018-09-19T09:42:22.879Z,4.33
2018-09-19T09:44:50.887Z,3.42
2018-09-19T09:47:18.909Z,3.70
2018-09-19T09:49:47.089Z,4.65
2018-09-19T09:52:15.142Z,3.10
2018-09-19T09:54:43.222Z,3.12
2018-09-19T09:57:11.693Z,3.53
2018-09-19T09:59:39.764Z,3.25
2018-09-19T10:02:07.838Z,3.08
2018-09-19T10:04:35.979Z,3.87
2018-09-19T10:07:03.962Z,3.98
2018-09-19T10:09:32.062Z,3.98
2018-09-19T10:12:00.121Z,3.52
2018-09-19T10:14:28.122Z,2.95
2018-09-19T10:16:56.122Z,3.70
2018-09-19T10:19:24.190Z,4.00
2018-09-19T10:21:52.210Z,3.72
2018-09-19T10:24:20.204Z,3.20
2018-09-19T10:26:48.327Z,3.45
2018-09-19T10:29:16.417Z,4.45
2018-09-19T10:31:44.483Z,3.12
2018-09-19T10:34:12.521Z,3.30
2018-09-19T10:36:40.741Z,4.05
2018-09-19T10:39:09.491Z,3.37
2018-09-19T10:41:37.542Z,3.05
2018-09-19T10:44:05.658Z,3.72
2018-09-19T10:46:33.752Z,3.27
2018-09-19T10:49:03.031Z,3.17
2018-09-19T10:51:31.068Z,3.90
2018-09-19T10:53:59.174Z,3.02
2018-09-19T10:56:27.577Z,3.70
2018-09-19T10:58:55.668Z,3.98
2018-09-19T11:01:23.687Z,4.25
2018-09-19T11:03:51.712Z,4.05
2018-09-19T11:06:19.706Z,3.77
2018-09-19T11:08:47.703Z,3.85
2018-09-19T11:11:16.186Z,3.25
2018-09-19T11:13:44.279Z,3.80
2018-09-19T11:16:12.270Z,3.60
2018-09-19T11:18:40.394Z,3.15
2018-09-19T11:21:08.487Z,4.58
2018-09-19T11:23:36.489Z,3.90
2018-09-19T11:26:04.623Z,3.30
2018-09-19T11:28:32.658Z,3.05
2018-09-19T11:31:00.677Z,4.90
2018-09-19T11:33:28.924Z,3.75
2018-09-19T11:35:56.924Z,3.42
2018-09-19T11:38:24.952Z,4.15
2018-09-19T11:40:53.583Z,3.65
2018-09-19T11:43:21.656Z,3.72
2018-09-19T11:45:50.410Z,3.35
2018-09-19T11:48:18.694Z,3.92
2018-09-19T11:50:46.762Z,3.80
2018-09-19T11:53:20.689Z,3.52
2018-09-19T11:58:39.523Z,3.47
2018-09-19T12:01:07.777Z,3.50
2018-09-19T12:03:36.035Z,3.10
2018-09-19T12:06:04.209Z,3.50
2018-09-19T12:08:32.429Z,3.45
2018-09-19T12:11:00.733Z,2.95
2018-09-19T12:13:29.339Z,3.77
2018-09-19T12:15:57.521Z,3.45
2018-09-19T12:18:25.855Z,2.92
2018-09-19T12:20:54.006Z,3.50
2018-09-19T12:23:22.004Z,2.85
2018-09-19T12:25:50.072Z,3.35
2018-09-19T12:28:18.223Z,3.70
2018-09-19T12:30:46.434Z,3.50
2018-09-19T12:33:14.461Z,3.30
2018-09-19T12:35:42.799Z,3.40
2018-09-19T12:38:11.809Z,3.40
2018-09-19T12:40:40.738Z,3.33
2018-09-19T12:43:09.222Z,2.90
2018-09-19T12:45:37.308Z,3.23
2018-09-19T12:48:05.558Z,2.97
2018-09-19T12:50:33.744Z,3.77
2018-09-19T12:53:01.811Z,3.42
2018-09-19T12:55:30.288Z,4.62
2018-09-19T12:57:58.327Z,3.50
2018-09-19T13:00:26.680Z,3.65
2018-09-19T13:02:54.711Z,3.77
2018-09-19T13:05:22.905Z,2.65
2018-09-19T13:07:50.934Z,3.33
2018-09-19T13:10:19.037Z,3.30
2018-09-19T13:12:47.155Z,3.02
2018-09-19T13:15:15.215Z,2.90
2018-09-19T13:17:43.272Z,3.40
2018-09-19T13:20:11.771Z,3.35
2018-09-19T13:22:39.823Z,4.10
2018-09-19T13:25:08.151Z,3.22
2018-09-19T13:27:36.487Z,3.55
2018-09-19T13:30:04.662Z,3.75
2018-09-19T13:32:32.698Z,3.00
2018-09-19T13:35:00.717Z,3.70
2018-09-19T13:37:28.734Z,3.08
2018-09-19T13:39:56.746Z,3.22
2018-09-19T13:42:24.952Z,3.70
2018-09-19T13:44:54.556Z,3.42
2018-09-19T13:47:22.733Z,3.00
2018-09-19T13:49:54.938Z,3.10
2018-09-19T13:52:23.003Z,2.92
2018-09-19T13:54:51.019Z,3.58
2018-09-19T13:57:19.151Z,3.50
2018-09-19T13:59:47.431Z,3.05
2018-09-19T14:02:15.531Z,3.55
2018-09-19T14:04:43.722Z,3.12
2018-09-19T14:07:11.770Z,2.92
2018-09-19T14:09:40.266Z,3.55
2018-09-19T14:12:09.048Z,3.62
2018-09-19T14:14:37.179Z,3.15
2018-09-19T14:17:05.255Z,3.55
2018-09-19T14:19:33.378Z,3.65
2018-09-19T14:22:01.448Z,3.50
2018-09-19T14:24:29.490Z,4.25
2018-09-19T14:26:57.754Z,4.50
2018-09-19T14:29:27.095Z,4.72
2018-09-19T14:31:55.118Z,4.22
2018-09-19T14:34:23.975Z,4.22
2018-09-19T14:36:52.191Z,3.92
2018-09-19T14:39:20.342Z,4.17
2018-09-19T14:41:48.533Z,4.28
2018-09-19T14:44:16.598Z,4.22
2018-09-19T14:46:45.282Z,4.12
2018-09-19T14:49:13.318Z,4.35
2018-09-19T14:51:41.327Z,3.98
2018-09-19T14:54:09.542Z,4.72
2018-09-19T14:56:37.587Z,5.00
2018-09-19T14:59:05.866Z,4.35
2018-09-19T15:01:33.907Z,4.28
2018-09-19T15:04:01.995Z,5.17
2018-09-19T15:06:30.679Z,3.98
2018-09-19T15:08:59.074Z,4.50
2018-09-19T15:11:27.172Z,4.83
2018-09-19T15:13:55.458Z,4.45
2018-09-19T15:16:23.578Z,5.45
2018-09-19T15:21:54.734Z,5.35
2018-09-19T15:24:23.533Z,5.40
2018-09-19T15:26:51.567Z,4.60
2018-09-19T15:29:19.829Z,5.08
2018-09-19T15:31:47.842Z,5.28
2018-09-19T15:34:15.875Z,4.53
2018-09-19T15:36:44.204Z,5.28
2018-09-19T15:39:12.239Z,5.53
2018-09-19T15:41:41.155Z,5.00
2018-09-19T15:44:09.217Z,5.85
2018-09-19T15:46:37.831Z,5.20
2018-09-19T15:49:06.229Z,5.62
2018-09-19T15:51:35.491Z,4.83
2018-09-19T15:54:03.768Z,4.80
2018-09-19T15:56:31.833Z,5.00
2018-09-19T15:59:00.324Z,4.70
2018-09-19T16:01:28.479Z,5.83
2018-09-19T16:03:57.003Z,5.70
2018-09-19T16:06:25.058Z,5.07
2018-09-19T16:08:53.090Z,5.63
2018-09-19T16:11:21.114Z,4.95
2018-09-19T16:13:49.210Z,5.37
2018-09-19T16:16:17.428Z,5.20
2018-09-19T16:18:45.417Z,5.17
2018-09-19T16:21:13.599Z,5.45
2018-09-19T16:23:41.595Z,5.30
2018-09-19T16:26:09.737Z,5.95
2018-09-19T16:28:38.813Z,5.25
2018-09-19T16:31:07.190Z,4.92
2018-09-19T16:33:35.246Z,5.20
2018-09-19T16:36:03.393Z,4.90
2018-09-19T16:38:34.286Z,4.67
2018-09-19T16:41:02.306Z,5.70
2018-09-19T16:43:30.383Z,5.28
2018-09-19T16:45:58.505Z,5.53
2018-09-19T16:48:26.573Z,5.65
2018-09-19T16:50:55.823Z,5.10
2018-09-19T16:53:23.806Z,5.85
2018-09-19T16:55:52.014Z,4.65
2018-09-19T16:58:20.034Z,5.55
2018-09-19T17:00:48.612Z,5.83
2018-09-19T17:03:16.617Z,6.65
2018-09-19T17:05:44.694Z,5.47
2018-09-19T17:08:13.885Z,5.62
2018-09-19T17:10:42.032Z,5.72
2018-09-19T17:13:10.402Z,5.67
2018-09-19T17:15:38.497Z,6.58
2018-09-19T17:18:07.007Z,6.15
2018-09-19T17:20:35.175Z,6.90
2018-09-19T17:23:03.675Z,6.47
2018-09-19T17:25:31.684Z,7.80
2018-09-19T17:27:59.678Z,7.72
2018-09-19T17:30:27.776Z,6.75
2018-09-19T17:32:55.827Z,6.70
2018-09-19T17:35:23.847Z,7.72
2018-09-19T17:37:52.394Z,7.70
2018-09-19T17:40:20.531Z,6.97
2018-09-19T17:42:48.667Z,7.30
2018-09-19T17:45:17.192Z,6.58
2018-09-19T17:47:45.264Z,6.30
2018-09-19T17:50:13.474Z,5.67
2018-09-19T17:52:41.934Z,7.78
2018-09-19T17:55:10.034Z,6.35
2018-09-19T17:57:38.091Z,6.12
2018-09-19T18:00:07.658Z,5.58
2018-09-19T18:02:35.642Z,5.75
2018-09-19T18:05:03.659Z,7.12
2018-09-19T18:07:32.029Z,7.35
2018-09-19T18:10:00.195Z,6.22
2018-09-19T18:12:28.237Z,7.72
2018-09-19T18:14:56.358Z,7.00
2018-09-19T18:17:24.515Z,6.30
2018-09-19T18:19:52.511Z,6.33
2018-09-19T18:22:20.647Z,5.95
2018-09-19T18:24:55.462Z,6.12
2018-09-19T18:27:23.607Z,6.35
2018-09-19T18:29:51.602Z,4.92
2018-09-19T18:32:20.183Z,6.42
2018-09-19T18:34:48.377Z,6.30
2018-09-19T18:37:16.395Z,4.97
2018-09-19T18:39:44.418Z,7.33
2018-09-19T18:42:12.606Z,6.40
2018-09-19T18:44:40.660Z,4.95
2018-09-19T18:47:08.663Z,6.10
2018-09-19T18:49:37.782Z,5.72
2018-09-19T18:52:05.802Z,5.78
2018-09-19T18:54:33.946Z,5.58
2018-09-19T18:57:02.066Z,6.15
2018-09-19T18:59:30.114Z,5.92
2018-09-19T19:01:58.172Z,5.92
2018-09-19T19:04:26.243Z,5.55
2018-09-19T19:06:54.235Z,5.87
2018-09-19T19:09:22.244Z,5.95
2018-09-19T19:11:50.457Z,5.25
2018-09-19T19:14:18.461Z,6.75
2018-09-19T19:16:46.595Z,6.30
2018-09-19T19:19:14.621Z,6.72
2018-09-19T19:21:42.739Z,5.55
2018-09-19T19:24:10.723Z,6.30
2018-09-19T19:26:39.095Z,5.65
2018-09-19T19:29:07.161Z,5.78
2018-09-19T19:31:35.283Z,5.72
2018-09-19T19:34:03.685Z,4.72
2018-09-19T19:36:31.911Z,5.40
2018-09-19T19:39:00.070Z,5.87
2018-09-19T19:41:28.243Z,5.40
2018-09-19T19:43:56.246Z,5.58
2018-09-19T19:46:24.258Z,5.45
2018-09-19T19:48:52.318Z,5.85
2018-09-19T19:51:20.425Z,5.67
2018-09-19T19:53:48.516Z,5.30
2018-09-19T19:56:16.981Z,5.50
2018-09-19T19:58:45.024Z,5.17
2018-09-19T20:01:13.124Z,4.55
2018-09-19T20:03:41.417Z,5.15
2018-09-19T20:06:14.855Z,5.12
2018-09-19T20:08:43.053Z,4.80
2018-09-19T20:11:11.139Z,5.20
2018-09-19T20:13:39.200Z,5.37
2018-09-19T20:16:07.230Z,5.78
2018-09-19T20:18:35.284Z,5.12
2018-09-19T20:21:03.298Z,5.33
2018-09-19T20:23:31.491Z,6.30
2018-09-19T20:25:59.678Z,6.10
2018-09-19T20:28:27.780Z,6.10
2018-09-19T20:30:56.338Z,5.70
2018-09-19T20:33:24.384Z,5.00
2018-09-19T20:35:52.447Z,5.03
2018-09-19T20:38:20.797Z,5.43
2018-09-19T20:40:48.791Z,5.50
2018-09-19T20:43:16.879Z,6.50
2018-09-19T20:45:44.946Z,8.60
2018-09-19T20:48:12.943Z,10.00
2018-09-19T20:50:41.006Z,5.12
2018-09-19T20:53:09.164Z,5.47
2018-09-19T20:55:37.323Z,5.33
2018-09-19T20:58:05.651Z,5.22
2018-09-19T21:00:33.687Z,5.17
2018-09-19T21:03:01.867Z,4.67
2018-09-19T21:05:29.888Z,5.25
2018-09-19T21:07:58.212Z,5.67
2018-09-19T21:10:26.194Z,5.08
2018-09-19T21:12:54.355Z,5.40
2018-09-19T21:15:22.940Z,5.50
2018-09-19T21:17:51.126Z,4.92
2018-09-19T21:20:19.717Z,5.45
2018-09-19T21:22:47.910Z,5.60
2018-09-19T21:25:15.886Z,5.05
2018-09-19T21:27:43.891Z,4.95
2018-09-19T21:30:12.450Z,6.12
2018-09-19T21:32:40.486Z,5.20
2018-09-19T21:35:08.559Z,4.65
2018-09-19T21:37:36.898Z,5.80
2018-09-19T21:40:04.881Z,4.78
2018-09-19T21:42:32.906Z,5.05
2018-09-19T21:45:00.927Z,5.67
2018-09-19T21:47:28.986Z,4.90
2018-09-19T21:49:57.006Z,5.10
2018-09-19T21:52:25.330Z,5.50
2018-09-19T21:54:53.390Z,5.10
2018-09-19T21:57:22.056Z,4.70
2018-09-19T21:59:50.779Z,5.85
2018-09-19T22:02:18.829Z,4.60
2018-09-19T22:04:47.522Z,5.53
2018-09-19T22:07:15.630Z,4.25
2018-09-19T22:09:43.650Z,7.30
2018-09-19T22:12:12.151Z,4.83
2018-09-19T22:14:42.064Z,5.30
2018-09-19T22:17:10.071Z,4.70
2018-09-19T22:19:38.074Z,4.50
2018-09-19T22:22:06.106Z,4.72
2018-09-19T22:24:34.518Z,4.90
2018-09-19T22:27:02.535Z,5.05
2018-09-19T22:29:30.708Z,4.50
2018-09-19T22:31:58.726Z,6.12
2018-09-19T22:34:26.866Z,4.95
2018-09-19T22:36:55.154Z,4.60
2018-09-19T22:39:23.158Z,4.78
2018-09-19T22:41:51.446Z,4.67
2018-09-19T22:44:19.542Z,5.22
2018-09-19T22:46:47.586Z,4.33
2018-09-19T22:49:15.717Z,4.70
2018-09-19T22:51:43.784Z,4.90
2018-09-19T22:54:11.873Z,4.62
2018-09-19T22:56:39.874Z,4.50
2018-09-19T22:59:08.173Z,4.95
2018-09-19T23:01:36.321Z,4.30
2018-09-19T23:04:04.331Z,4.28
2018-09-19T23:06:32.373Z,4.90
2018-09-19T23:09:00.679Z,4.45
2018-09-19T23:11:28.669Z,5.03
2018-09-19T23:13:57.014Z,4.85
2018-09-19T23:16:25.040Z,5.30
2018-09-19T23:18:59.963Z,4.83
2018-09-19T23:21:27.999Z,5.20
2018-09-19T23:23:55.996Z,4.45
2018-09-19T23:26:24.043Z,5.40
2018-09-19T23:28:52.156Z,4.42
2018-09-19T23:31:20.137Z,4.92
2018-09-19T23:33:48.162Z,4.37
2018-09-19T23:36:16.154Z,4.30
2018-09-19T23:38:44.176Z,5.08
2018-09-19T23:41:12.415Z,5.00
2018-09-19T23:43:40.422Z,3.65
2018-09-19T23:46:08.438Z,4.20
2018-09-19T23:48:36.494Z,4.45
2018-09-19T23:51:04.531Z,3.50
2018-09-19T23:53:32.540Z,3.87
2018-09-19T23:56:00.770Z,4.22
2018-09-19T23:58:28.783Z,4.65
